Time;durP1;ratioP1;P1;durP2;ratioP2;P2;SDS_P1;SDS_P2;PMS_P1;PMS_P2;Temp;Humidity;BMP_temperature;BMP_pressure;BME280_temperature;BME280_humidity;BME280_pressure;Samples;Min_cycle;Max_cycle;Signal;HPM_P1;HPM_P2
2022/06/17 00:00:55;;;;;;;5.53;2.65;;;14.30;1.00;;;;;;10278687;28;20196;-83
2022/06/17 00:06:19;;;;;;;6.45;2.28;;;14.30;1.00;;;;;;10264962;28;20232;-83
2022/06/17 00:11:40;;;;;;;3.30;1.80;;;14.20;1.00;;;;;;10278709;28;20379;-83
2022/06/17 00:17:22;;;;;;;2.70;1.80;;;14.20;1.80;;;;;;10277551;28;20261;-83
2022/06/17 00:22:45;;;;;;;2.78;1.98;;;14.10;11.60;;;;;;10277982;28;20208;-83
2022/06/17 00:28:19;;;;;;;5.78;2.20;;;14.00;26.70;;;;;;10263948;28;20200;-81
2022/06/17 00:33:40;;;;;;;4.30;2.22;;;14.00;28.60;;;;;;10240224;28;20531;-83
2022/06/17 00:39:10;;;;;;;2.92;1.77;;;13.90;47.60;;;;;;10276846;28;20228;-83
2022/06/17 00:44:49;;;;;;;3.47;1.92;;;13.80;50.00;;;;;;10263747;29;20209;-82
2022/06/17 00:50:37;;;;;;;2.47;1.60;;;13.80;59.30;;;;;;10249562;28;20236;-82
2022/06/17 00:56:18;;;;;;;2.25;1.80;;;13.70;71.60;;;;;;10262750;28;20545;-82
2022/06/17 01:01:50;;;;;;;2.97;2.10;;;13.70;67.70;;;;;;10262952;28;20201;-83
2022/06/17 01:07:19;;;;;;;3.97;2.33;;;13.70;76.50;;;;;;10276613;28;20402;-82
2022/06/17 01:12:44;;;;;;;4.00;1.42;;;13.70;92.20;;;;;;10262271;28;20200;-83
2022/06/17 01:18:07;;;;;;;3.03;1.70;;;13.70;90.60;;;;;;10262189;28;20253;-83
2022/06/17 01:23:30;;;;;;;4.38;1.77;;;13.70;89.20;;;;;;10263100;28;20205;-82
2022/06/17 01:28:51;;;;;;;3.45;1.83;;;13.70;90.20;;;;;;10282710;28;20228;-83
2022/06/17 01:34:13;;;;;;;3.28;2.00;;;13.80;93.80;;;;;;10248466;28;20226;-83
2022/06/17 01:39:35;;;;;;;3.53;1.75;;;13.70;95.50;;;;;;10261391;28;20519;-83
2022/06/17 01:44:56;;;;;;;3.30;2.08;;;13.70;95.50;;;;;;10261595;28;20202;-83
2022/06/17 01:50:20;;;;;;;3.47;2.03;;;13.70;93.20;;;;;;10260744;28;20207;-83
2022/06/17 01:55:50;;;;;;;2.88;2.00;;;13.60;99.90;;;;;;10260591;28;20253;-83
2022/06/17 02:01:13;;;;;;;2.22;1.50;;;13.50;99.90;;;;;;10260475;28;20216;-83
2022/06/17 02:06:50;;;;;;;2.83;1.60;;;13.50;98.40;;;;;;10274530;28;20201;-83
2022/06/17 02:12:13;;;;;;;3.08;1.58;;;13.40;99.90;;;;;;10260779;28;20210;-82
2022/06/17 02:17:43;;;;;;;3.75;2.42;;;13.40;99.90;;;;;;10260400;28;20304;-83
2022/06/17 02:23:15;;;;;;;2.95;2.25;;;13.30;99.90;;;;;;10248145;28;20197;-83
2022/06/17 02:28:38;;;;;;;2.90;1.85;;;13.30;99.90;;;;;;10260431;28;20205;-83
2022/06/17 02:34:00;;;;;;;4.03;2.13;;;13.30;99.90;;;;;;10260244;29;20528;-83
2022/06/17 02:39:22;;;;;;;1.98;1.77;;;13.30;99.90;;;;;;10283072;28;20211;-83
2022/06/17 02:44:46;;;;;;;4.43;2.50;;;13.30;99.90;;;;;;10268274;28;20253;-82
2022/06/17 02:50:13;;;;;;;3.13;1.80;;;13.30;99.90;;;;;;10267275;28;20433;-83
2022/06/17 02:55:38;;;;;;;1.85;1.70;;;13.30;99.90;;;;;;10267128;28;20271;-82
2022/06/17 03:08:29;;;;;;;2.47;1.90;;;13.30;99.90;;;;;;10282250;28;20250;-83
2022/06/17 03:13:57;;;;;;;4.63;2.03;;;13.30;99.90;;;;;;10285200;28;20253;-83
2022/06/17 03:19:22;;;;;;;3.00;2.20;;;13.40;99.90;;;;;;10281127;28;20229;-82
2022/06/17 03:24:55;;;;;;;4.28;2.47;;;13.50;99.90;;;;;;10266573;28;20200;-83
2022/06/17 03:30:24;;;;;;;2.75;2.05;;;13.50;99.90;;;;;;10266930;28;20206;-82
2022/06/17 03:35:47;;;;;;;4.50;2.33;;;13.50;99.90;;;;;;10279996;28;20442;-82
2022/06/17 03:41:16;;;;;;;5.65;2.40;;;13.60;99.90;;;;;;10279980;28;20200;-83
2022/06/17 03:46:47;;;;;;;3.70;2.70;;;13.60;99.90;;;;;;10279035;28;20209;-81
2022/06/17 03:52:28;;;;;;;6.35;3.17;;;13.70;99.90;;;;;;10271228;28;20546;-83
2022/06/17 03:58:01;;;;;;;5.28;3.17;;;13.70;99.90;;;;;;10225760;29;20475;-82
2022/06/17 04:03:51;;;;;;;5.03;3.03;;;13.80;99.90;;;;;;10266087;28;20201;-82
2022/06/17 04:09:19;;;;;;;4.68;3.00;;;13.80;99.90;;;;;;10278727;28;20205;-83
2022/06/17 04:14:52;;;;;;;5.78;3.00;;;13.90;99.90;;;;;;10264649;28;20221;-82
2022/06/17 04:20:14;;;;;;;7.57;3.35;;;13.90;99.90;;;;;;10278322;28;20414;-82
2022/06/17 04:25:54;;;;;;;8.18;3.83;;;14.00;99.90;;;;;;10278128;28;20192;-81
2022/06/17 04:31:20;;;;;;;5.82;3.67;;;14.00;99.90;;;;;;10277890;28;20262;-82
2022/06/17 04:37:12;;;;;;;4.38;2.67;;;14.10;99.90;;;;;;10265239;28;20438;-82
2022/06/17 04:42:58;;;;;;;5.53;2.90;;;14.20;99.90;;;;;;10279284;28;20242;-81
2022/06/17 04:48:19;;;;;;;4.75;2.85;;;14.50;99.90;;;;;;10263709;28;20205;-83
2022/06/17 04:53:46;;;;;;;8.00;4.40;;;14.70;99.90;;;;;;10250346;28;20236;-82
2022/06/17 04:59:44;;;;;;;10.43;4.70;;;14.70;99.90;;;;;;10186026;29;20290;-82
2022/06/17 05:05:11;;;;;;;5.95;4.35;;;14.80;99.90;;;;;;10133266;29;20236;-82
2022/06/17 05:10:37;;;;;;;6.93;4.80;;;14.80;99.90;;;;;;10155765;29;20365;-81
2022/06/17 05:15:58;;;;;;;8.52;4.68;;;14.80;99.90;;;;;;10116323;29;20306;-82
2022/06/17 05:21:24;;;;;;;5.90;3.28;;;14.80;99.90;;;;;;10116604;29;20213;-82
2022/06/17 05:26:53;;;;;;;9.05;3.60;;;15.00;99.90;;;;;;10141939;29;20258;-82
2022/06/17 05:32:18;;;;;;;5.57;4.15;;;15.20;99.90;;;;;;10258504;28;20218;-82
2022/06/17 05:37:40;;;;;;;7.55;3.10;;;15.30;99.90;;;;;;10262499;28;20528;-82
2022/06/17 05:43:04;;;;;;;5.07;2.80;;;15.50;99.90;;;;;;10275471;28;20218;-82
2022/06/17 05:48:25;;;;;;;7.35;3.13;;;15.80;99.90;;;;;;10261430;28;20210;-82
2022/06/17 05:54:10;;;;;;;4.18;2.10;;;16.00;99.90;;;;;;10273542;28;20239;-83
2022/06/17 05:59:39;;;;;;;6.25;2.30;;;16.20;99.90;;;;;;10274820;28;20197;-83
2022/06/17 06:05:02;;;;;;;3.03;2.28;;;16.60;95.50;;;;;;10261161;28;20222;-83
2022/06/17 06:10:28;;;;;;;3.30;2.30;;;16.80;75.50;;;;;;10260705;28;20209;-82
2022/06/17 06:15:54;;;;;;;5.82;1.77;;;17.10;60.30;;;;;;10273971;28;20405;-82
2022/06/17 06:21:27;;;;;;;5.32;2.33;;;17.30;38.10;;;;;;10274133;28;20199;-83
2022/06/17 06:26:48;;;;;;;11.10;2.47;;;17.60;8.60;;;;;;10273109;28;20201;-82
2022/06/17 06:32:25;;;;;;;2.22;1.70;;;18.00;1.00;;;;;;10300038;28;20195;-82
2022/06/17 06:37:55;;;;;;;3.33;1.83;;;18.40;1.00;;;;;;10260676;28;20219;-82
2022/06/17 06:43:20;;;;;;;3.50;1.73;;;19.10;1.00;;;;;;10259792;28;20199;-82
2022/06/17 06:49:00;;;;;;;3.60;1.85;;;19.70;1.00;;;;;;10262226;28;20210;-82
2022/06/17 06:54:25;;;;;;;4.55;2.40;;;20.60;1.00;;;;;;10272837;28;20255;-82
2022/06/17 06:59:47;;;;;;;5.40;2.15;;;21.20;1.00;;;;;;10259487;28;20203;-83
2022/06/17 07:05:09;;;;;;;10.55;1.98;;;21.50;1.00;;;;;;10260175;29;20210;-82
2022/06/17 07:10:33;;;;;;;3.65;1.50;;;22.00;1.00;;;;;;10208989;28;20231;-81
2022/06/17 07:15:56;;;;;;;2.95;1.65;;;22.50;1.00;;;;;;10257653;28;20432;-95
2022/06/17 07:21:18;;;;;;;3.60;1.65;;;22.90;1.00;;;;;;10293428;28;20486;-83
2022/06/17 07:26:40;;;;;;;2.17;1.38;;;23.10;1.00;;;;;;10273790;28;20218;-86
2022/06/17 07:32:01;;;;;;;5.85;1.83;;;23.50;1.00;;;;;;10317324;28;20277;-85
2022/06/17 07:43:03;;;;;;;5.75;1.90;;;23.90;1.00;;;;;;10264619;28;20509;-85
2022/06/17 07:48:26;;;;;;;13.45;2.35;;;24.10;1.00;;;;;;10252519;28;20211;-84
2022/06/17 07:53:47;;;;;;;9.63;2.10;;;24.40;99.90;;;;;;10279456;28;20247;-82
2022/06/17 07:59:09;;;;;;;6.07;1.90;;;24.80;1.00;;;;;;10262261;28;20270;-86
2022/06/17 08:04:32;;;;;;;7.50;1.90;;;25.10;99.90;;;;;;10263003;28;20270;-85
2022/06/17 08:09:53;;;;;;;9.15;2.00;;;25.30;99.90;;;;;;10261845;28;20222;-85
2022/06/17 08:15:15;;;;;;;6.40;1.52;;;25.70;1.00;;;;;;10260706;28;20482;-88
2022/06/17 08:20:37;;;;;;;8.68;2.58;;;25.80;99.90;;;;;;10253799;29;20255;-88
2022/06/17 08:26:00;;;;;;;9.23;1.90;;;26.10;99.90;;;;;;10262731;28;20194;-87
2022/06/17 08:31:22;;;;;;;3.78;1.40;;;26.00;88.20;;;;;;10228307;29;20235;-85
2022/06/17 08:36:44;;;;;;;8.65;1.88;;;25.70;1.00;;;;;;10249668;28;20246;-86
2022/06/17 08:42:12;;;;;;;2.90;1.30;;;25.60;1.00;;;;;;10265588;28;20210;-87
2022/06/17 08:47:56;;;;;;;5.28;1.20;;;25.80;1.00;;;;;;10263158;28;20327;-86
2022/06/17 08:53:53;;;;;;;4.22;1.50;;;25.80;1.00;;;;;;10271530;28;20569;-88
2022/06/17 08:59:24;;;;;;;8.18;1.70;;;25.80;1.00;;;;;;10265885;28;20204;-93
2022/06/17 09:05:20;;;;;;;7.05;1.58;;;26.10;1.00;;;;;;10262108;28;20218;-86
2022/06/17 09:11:05;;;;;;;2.00;1.23;;;26.20;1.00;;;;;;10265637;28;20196;-84
2022/06/17 09:17:03;;;;;;;6.38;1.50;;;25.10;1.00;;;;;;10271539;28;20329;-85
2022/06/17 09:22:30;;;;;;;4.13;1.50;;;25.00;1.00;;;;;;10260649;29;20199;-86
2022/06/17 09:27:54;;;;;;;4.50;1.70;;;25.10;1.00;;;;;;10260987;28;20373;-86
2022/06/17 09:33:28;;;;;;;3.63;2.00;;;25.10;1.00;;;;;;10224631;29;20196;-88
2022/06/17 09:38:58;;;;;;;4.20;1.38;;;25.30;1.00;;;;;;10247678;28;20276;-87
2022/06/17 09:44:33;;;;;;;7.47;1.70;;;26.60;99.90;;;;;;10232536;29;20196;-88
2022/06/17 09:50:11;;;;;;;3.42;1.20;;;26.00;99.90;;;;;;10252212;29;20227;-82
2022/06/17 09:55:37;;;;;;;5.18;1.30;;;26.10;99.90;;;;;;10256392;28;20253;-85
2022/06/17 10:00:58;;;;;;;3.72;1.30;;;25.20;99.90;;;;;;10246459;28;20573;-80
2022/06/17 10:06:40;;;;;;;4.55;1.40;;;24.60;99.90;;;;;;10269928;28;20214;-86
2022/06/17 10:12:31;;;;;;;2.85;1.63;;;24.00;1.00;;;;;;10259911;28;20237;-81
2022/06/17 10:18:34;;;;;;;1.75;1.08;;;24.10;1.00;;;;;;10120923;29;20251;-82
2022/06/17 10:24:39;;;;;;;6.68;1.77;;;23.70;1.00;;;;;;10130790;29;20201;-79
2022/06/17 10:30:12;;;;;;;4.20;1.73;;;23.40;1.00;;;;;;10043528;29;20215;-83
2022/06/17 10:42:57;;;;;;;4.63;1.85;;;23.70;1.00;;;;;;10069468;29;20246;-80
2022/06/17 10:48:39;;;;;;;16.17;1.80;;;24.30;1.00;;;;;;10057460;29;20218;-82
2022/06/17 10:54:11;;;;;;;5.00;1.42;;;23.80;1.00;;;;;;10118570;29;20252;-81
2022/06/17 10:59:39;;;;;;;36.08;3.03;;;23.30;1.00;;;;;;10127640;29;20209;-85
2022/06/17 11:05:07;;;;;;;5.75;1.80;;;23.00;1.00;;;;;;10283738;28;20241;-84
2022/06/17 11:10:33;;;;;;;10.13;2.15;;;23.10;1.00;;;;;;10306377;28;20203;-82
2022/06/17 11:16:22;;;;;;;3.45;1.23;;;24.00;1.00;;;;;;10272372;28;20223;-82
2022/06/17 11:22:00;;;;;;;4.45;1.77;;;23.60;1.00;;;;;;10279304;28;20200;-81
2022/06/17 11:27:43;;;;;;;7.80;1.67;;;23.40;1.00;;;;;;10267356;28;20215;-83
2022/06/17 11:33:24;;;;;;;9.10;2.28;;;23.30;1.00;;;;;;10284936;28;20198;-84
2022/06/17 11:38:50;;;;;;;7.53;1.50;;;23.60;1.00;;;;;;10289443;28;20258;-82
2022/06/17 11:44:19;;;;;;;9.27;1.50;;;25.10;1.00;;;;;;10303828;28;20199;-83
2022/06/17 11:49:40;;;;;;;3.28;1.20;;;26.20;1.00;;;;;;10261856;28;20282;-82
2022/06/17 11:55:03;;;;;;;7.32;1.63;;;26.70;99.90;;;;;;10273003;28;20313;-85
2022/06/17 12:00:39;;;;;;;8.20;1.30;;;27.00;99.90;;;;;;10277043;28;20226;-80
2022/06/17 12:06:05;;;;;;;7.20;2.60;;;27.20;99.90;;;;;;10290474;28;20211;-84
2022/06/17 12:11:50;;;;;;;25.17;1.92;;;27.00;99.90;;;;;;10278256;28;20199;-85
2022/06/17 12:17:29;;;;;;;5.38;1.92;;;26.70;99.90;;;;;;10249034;29;20563;-82
2022/06/17 12:23:04;;;;;;;2.10;1.23;;;26.80;99.90;;;;;;10287740;28;20526;-84
2022/06/17 12:28:38;;;;;;;1.90;1.10;;;27.30;99.90;;;;;;10262431;28;20204;-84
2022/06/17 12:34:57;;;;;;;3.30;1.35;;;27.50;99.90;;;;;;10300342;28;20203;-86
2022/06/17 12:41:10;;;;;;;17.45;1.42;;;27.50;99.90;;;;;;10272497;29;20226;-84
2022/06/17 12:46:44;;;;;;;2.95;1.10;;;27.20;99.90;;;;;;10276335;28;20267;-84
2022/06/17 12:58:41;;;;;;;8.23;1.15;;;26.10;99.90;;;;;;10279077;28;20553;-87
2022/06/17 13:04:27;;;;;;;1.38;0.90;;;25.90;99.90;;;;;;10226330;29;20192;-89
2022/06/17 13:09:54;;;;;;;25.25;1.70;;;25.90;99.90;;;;;;10223304;29;20211;-85
2022/06/17 13:15:25;;;;;;;0.98;0.80;;;26.20;99.90;;;;;;10265483;28;20238;-85
2022/06/17 13:21:11;;;;;;;1.50;1.00;;;26.60;88.80;;;;;;10261739;28;20207;-85
2022/06/17 13:26:40;;;;;;;8.18;1.88;;;27.00;74.50;;;;;;10263856;28;20207;-86
2022/06/17 13:32:12;;;;;;;4.63;1.20;;;26.90;71.30;;;;;;10262705;28;20222;-85
2022/06/17 13:37:38;;;;;;;2.22;1.00;;;26.60;59.50;;;;;;10252432;28;20406;-84
2022/06/17 13:43:22;;;;;;;1.02;0.95;;;26.30;44.30;;;;;;10261402;28;20203;-85
2022/06/17 13:49:15;;;;;;;4.45;1.00;;;26.40;42.60;;;;;;10248467;28;20202;-84
2022/06/17 13:54:59;;;;;;;3.47;1.00;;;26.20;25.50;;;;;;10273584;28;20276;-84
2022/06/17 14:00:21;;;;;;;1.52;1.00;;;26.00;28.20;;;;;;10251047;28;20199;-84
2022/06/17 14:06:07;;;;;;;1.65;1.08;;;25.70;29.90;;;;;;10236980;29;20231;-84
2022/06/17 14:11:39;;;;;;;35.53;3.20;;;25.70;24.80;;;;;;10238953;28;20466;-84
2022/06/17 14:17:11;;;;;;;1.17;0.90;;;25.60;22.90;;;;;;10260915;28;20249;-84
2022/06/17 14:22:38;;;;;;;3.35;0.90;;;25.20;33.10;;;;;;10260968;28;20391;-84
2022/06/17 14:28:00;;;;;;;4.45;1.20;;;25.10;27.30;;;;;;10274495;28;20222;-84
2022/06/17 14:33:40;;;;;;;7.07;1.27;;;25.20;34.30;;;;;;10294740;28;20195;-84
2022/06/17 14:39:06;;;;;;;3.33;1.50;;;25.30;30.40;;;;;;10274252;28;20237;-84
2022/06/17 14:44:28;;;;;;;1.67;1.05;;;25.40;40.50;;;;;;10274176;28;20207;-85
2022/06/17 14:50:15;;;;;;;3.28;1.20;;;25.30;28.40;;;;;;10261534;28;20203;-84
2022/06/17 14:56:08;;;;;;;2.13;1.23;;;25.30;29.60;;;;;;10260658;28;20295;-85
2022/06/17 15:01:37;;;;;;;1.60;0.90;;;25.30;18.90;;;;;;10248265;29;20274;-85
2022/06/17 15:07:06;;;;;;;1.58;0.95;;;25.20;18.20;;;;;;10249582;29;20226;-84
2022/06/17 15:12:34;;;;;;;3.65;0.85;;;25.00;6.50;;;;;;10281101;28;20243;-85
2022/06/17 15:18:02;;;;;;;1.20;0.75;;;25.00;5.80;;;;;;10273114;28;20431;-85
2022/06/17 15:23:30;;;;;;;9.68;1.52;;;24.90;4.30;;;;;;10273053;28;20203;-85
2022/06/17 15:28:54;;;;;;;1.77;0.95;;;24.80;4.40;;;;;;10289693;28;20202;-84
2022/06/17 15:34:21;;;;;;;1.73;0.82;;;24.60;13.00;;;;;;10299787;28;20497;-84
2022/06/17 15:39:44;;;;;;;5.25;1.67;;;24.50;16.60;;;;;;10299949;28;20483;-84
2022/06/17 15:45:16;;;;;;;2.40;0.88;;;24.40;19.00;;;;;;10308978;28;20208;-84
2022/06/17 15:50:47;;;;;;;1.73;0.82;;;24.30;13.10;;;;;;10306517;28;20308;-85
2022/06/17 15:56:16;;;;;;;1.92;1.30;;;24.20;14.60;;;;;;10234753;28;20242;-84
2022/06/17 16:01:54;;;;;;;0.77;0.77;;;24.10;18.10;;;;;;10278870;28;20199;-84
2022/06/17 16:07:15;;;;;;;4.97;1.40;;;23.90;22.10;;;;;;10265376;28;20207;-84
2022/06/17 16:12:50;;;;;;;3.40;1.08;;;23.90;21.70;;;;;;10265504;28;20498;-84
2022/06/17 16:19:09;;;;;;;1.70;0.90;;;23.80;21.40;;;;;;10266739;28;20254;-84
2022/06/17 16:24:34;;;;;;;0.90;0.80;;;23.70;18.40;;;;;;10219982;29;20204;-85
2022/06/17 16:36:12;;;;;;;6.05;1.48;;;23.40;23.60;;;;;;10222372;29;20267;-84
2022/06/17 16:47:18;;;;;;;2.00;1.20;;;23.00;40.70;;;;;;10207658;29;20278;-84
2022/06/17 16:52:41;;;;;;;2.72;1.27;;;23.00;55.90;;;;;;10249694;28;20243;-84
2022/06/17 16:58:02;;;;;;;1.98;1.23;;;22.80;69.60;;;;;;10250375;28;20294;-84
2022/06/17 17:03:24;;;;;;;6.85;1.60;;;22.70;90.80;;;;;;10264143;28;20383;-84
2022/06/17 17:08:46;;;;;;;2.85;1.10;;;22.50;99.90;;;;;;10263668;28;20206;-84
2022/06/17 17:14:10;;;;;;;3.42;1.50;;;22.40;99.90;;;;;;10276616;28;20510;-84
2022/06/17 17:19:32;;;;;;;4.10;1.38;;;22.30;99.90;;;;;;10263406;28;20230;-84
2022/06/17 17:24:59;;;;;;;6.68;1.77;;;22.20;99.90;;;;;;10276618;28;20195;-84
2022/06/17 17:30:21;;;;;;;2.38;1.63;;;22.20;99.90;;;;;;10280671;28;20203;-84
2022/06/17 17:35:43;;;;;;;1.58;1.10;;;22.20;99.90;;;;;;10262355;28;20223;-84
2022/06/17 17:41:23;;;;;;;1.55;1.10;;;22.00;99.90;;;;;;10268089;28;20270;-84
2022/06/17 17:47:00;;;;;;;2.33;0.90;;;21.80;99.90;;;;;;10281251;28;20188;-85
2022/06/17 17:52:22;;;;;;;2.20;1.15;;;21.70;99.90;;;;;;10263284;28;20290;-83
2022/06/17 17:57:44;;;;;;;3.15;1.10;;;21.60;99.90;;;;;;10267428;28;20270;-84
2022/06/17 18:10:38;;;;;;;2.70;1.60;;;21.40;1.00;;;;;;10280450;28;20187;-84
2022/06/17 18:16:03;;;;;;;3.65;1.20;;;21.30;1.00;;;;;;10264193;28;20286;-84
2022/06/17 18:21:25;;;;;;;2.70;0.95;;;21.20;1.00;;;;;;10265587;28;20352;-84
2022/06/17 18:26:51;;;;;;;1.98;1.10;;;21.10;1.00;;;;;;10281961;28;20199;-85
2022/06/17 18:32:15;;;;;;;2.08;1.13;;;21.00;1.00;;;;;;10266665;28;20242;-85
2022/06/17 18:37:39;;;;;;;3.55;1.20;;;20.90;1.00;;;;;;10279394;28;20230;-84
2022/06/17 18:43:40;;;;;;;1.73;1.20;;;20.70;20.10;;;;;;10281711;28;20202;-84
2022/06/17 18:49:06;;;;;;;1.85;1.17;;;20.60;99.90;;;;;;10262066;28;20239;-84
2022/06/17 18:54:28;;;;;;;2.13;1.30;;;20.50;99.90;;;;;;10272596;28;20246;-85
2022/06/17 18:59:50;;;;;;;2.78;1.08;;;20.40;1.00;;;;;;10248651;29;20230;-85
2022/06/17 19:05:20;;;;;;;1.50;1.20;;;20.30;1.00;;;;;;10239438;29;20203;-85
2022/06/17 19:22:14;;;;;;;5.03;1.70;;;19.80;1.00;;;;;;10274010;28;20203;-84
2022/06/17 19:27:37;;;;;;;3.80;1.00;;;19.70;99.90;;;;;;10291594;28;20198;-84
2022/06/17 19:33:01;;;;;;;3.75;1.50;;;19.60;99.90;;;;;;10324497;28;20198;-84
2022/06/17 19:38:25;;;;;;;1.83;1.23;;;19.50;1.00;;;;;;10298775;28;20323;-84
2022/06/17 19:43:47;;;;;;;1.98;1.48;;;19.40;99.90;;;;;;10316470;28;20257;-85
2022/06/17 19:49:18;;;;;;;1.73;1.20;;;19.30;1.00;;;;;;10328405;28;20384;-84
2022/06/17 19:54:45;;;;;;;1.38;1.20;;;19.20;1.00;;;;;;10289652;28;20243;-84
2022/06/17 20:00:07;;;;;;;1.55;1.20;;;19.20;99.90;;;;;;10234266;29;20239;-83
2022/06/17 20:05:51;;;;;;;1.98;0.93;;;19.10;1.00;;;;;;10244308;29;20393;-84
2022/06/17 20:53:24;;;;;;;10.25;5.93;;;18.50;99.90;;;;;;10294024;28;20213;-82
2022/06/17 20:58:47;;;;;;;9.05;5.55;;;18.50;99.90;;;;;;10277667;28;20226;-84
2022/06/17 21:04:08;;;;;;;6.95;4.25;;;18.40;12.10;;;;;;10263988;28;20252;-84
2022/06/17 21:09:36;;;;;;;4.70;3.40;;;18.40;1.00;;;;;;10263610;28;20404;-84
2022/06/17 21:14:58;;;;;;;6.13;3.30;;;18.30;1.00;;;;;;10263416;28;20204;-85
2022/06/17 21:20:20;;;;;;;5.28;3.13;;;18.20;99.90;;;;;;10263032;28;20277;-84
2022/06/17 21:25:41;;;;;;;4.95;3.00;;;18.10;1.00;;;;;;10281239;28;20194;-84
2022/06/17 21:31:02;;;;;;;3.88;2.50;;;18.00;99.90;;;;;;10302719;28;20202;-84
2022/06/17 21:36:28;;;;;;;5.00;2.92;;;18.00;1.00;;;;;;10302433;28;20301;-83
2022/06/17 21:41:53;;;;;;;4.50;2.97;;;17.90;1.00;;;;;;10315351;28;20218;-83
2022/06/17 21:47:14;;;;;;;3.72;2.83;;;17.90;1.00;;;;;;10315988;28;20256;-83
2022/06/17 21:52:36;;;;;;;4.55;2.80;;;17.80;1.00;;;;;;10302643;28;20244;-83
2022/06/17 21:57:58;;;;;;;4.78;3.03;;;17.70;1.00;;;;;;10247888;28;20298;-84
2022/06/17 22:03:19;;;;;;;4.32;2.83;;;17.60;1.00;;;;;;10261622;28;20199;-84
2022/06/17 22:08:44;;;;;;;9.95;6.75;;;17.60;1.00;;;;;;10248173;28;20202;-83
2022/06/17 22:14:15;;;;;;;9.10;5.65;;;17.50;99.90;;;;;;10288069;28;20203;-84
2022/06/17 22:19:38;;;;;;;10.02;5.68;;;17.50;1.00;;;;;;10275030;28;20242;-83
2022/06/17 22:25:01;;;;;;;7.38;4.93;;;17.40;1.00;;;;;;10261013;29;20199;-84
2022/06/17 22:30:25;;;;;;;10.48;5.75;;;17.30;1.00;;;;;;10222691;29;20509;-84
2022/06/17 22:35:47;;;;;;;9.80;4.95;;;17.20;1.00;;;;;;10234588;29;20243;-84
2022/06/17 22:41:12;;;;;;;10.85;7.13;;;17.20;1.00;;;;;;10221218;29;20274;-84
2022/06/17 22:46:34;;;;;;;8.13;5.40;;;17.20;1.00;;;;;;10250294;28;20381;-83
2022/06/17 22:51:56;;;;;;;6.03;3.70;;;17.20;1.00;;;;;;10228094;28;20217;-84
2022/06/17 22:57:20;;;;;;;4.40;2.92;;;17.10;1.00;;;;;;10227068;29;20325;-84
2022/06/17 23:02:43;;;;;;;3.42;2.60;;;17.10;99.90;;;;;;10268419;28;20227;-83
2022/06/17 23:08:07;;;;;;;3.60;2.72;;;17.10;1.00;;;;;;10281575;28;20227;-84
2022/06/17 23:13:30;;;;;;;4.53;2.95;;;17.10;99.90;;;;;;10294822;28;20203;-83
2022/06/17 23:24:34;;;;;;;5.50;2.65;;;17.20;99.90;;;;;;10282482;28;20191;-84
2022/06/17 23:29:56;;;;;;;3.78;2.42;;;17.10;99.90;;;;;;10305031;28;20397;-83
2022/06/17 23:35:28;;;;;;;3.47;2.70;;;17.10;99.90;;;;;;10307412;28;20203;-83
2022/06/17 23:40:50;;;;;;;15.45;9.25;;;17.10;99.90;;;;;;10320055;28;20234;-84
2022/06/17 23:46:33;;;;;;;14.45;7.38;;;17.10;99.90;;;;;;10320047;28;20509;-84
2022/06/17 23:51:55;;;;;;;6.57;4.10;;;17.00;99.90;;;;;;10298607;28;20221;-83
2022/06/17 23:57:18;;;;;;;4.25;2.72;;;17.00;99.90;;;;;;10225505;28;20544;-84
